Weather observations for the past three days for
Hermiston, Hermiston Municipal Airport
Metric (Imperial)
Date Time (pdt) Wind (kph) Vis. (km) Weather Sky Cond. Temperature (ºC) Relative Humidity Wind Chill (°C) Heat Index (°C) Pressure Precipitation (cm)
Air Dwpt 6 hour altimeter (cm) sea level (mb) 1 hr 3 hr 6 hr
Max. Min.
02 11:53 NE 6 16.09 Fair CLR 23.9 8.3 37% 25 76.02 1013.3
02 10:53 NE 7 16.09 Fair CLR 22.2 8.3 22.2 8.3 41% 76.05 1013.4
02 09:53 E 6 16.09 Fair CLR 20 8.3 47% 76.05 1013.5
02 08:53 Calm 16.09 Fair CLR 17.8 8.9 56% 76.05 1013.5
02 07:53 W 6 16.09 Fair CLR 15 8.3 64% 76.02 1013.2
02 06:53 S 6 16.09 Fair CLR 11.1 9.4 89% 76 1013.0
02 05:53 S 6 16.09 Fair CLR 9.4 7.8 90% 75.97 1012.4
02 04:53 E 9 16.09 Fair CLR 10 8.3 16.7 9.4 89% 9 75.95 1012.1
02 03:53 S 7 16.09 Fair CLR 11.7 7.2 74% 75.95 1011.9
02 02:53 Calm 16.09 Fair CLR 13.3 6.7 65% 75.92 1011.7
02 01:53 E 15 16.09 Fair CLR 13.3 7.8 70% 75.92 1011.8
02 00:53 E 9 16.09 Fair CLR 13.9 8.3 69% 75.92 1011.8
01 23:53 E 11 16.09 Fair CLR 13.9 7.8 67% 75.92 1011.8
01 22:53 Calm 16.09 Fair CLR 16.7 7.8 27.8 13.9 56% 75.92 1011.7
01 21:53 SE 7 16.09 Fair CLR 16.1 8.3 60% 75.9 1011.6
01 20:53 E 17 16.09 Fair CLR 18.3 8.3 52% 75.9 1011.3
01 19:53 NE 13 16.09 Fair CLR 21.1 6.7 39% 75.87 1011.1
01 18:53 NE 13 16.09 Fair CLR 24.4 6.7 32% 25 75.87 1011.3
01 17:53 NE 15 16.09 Fair CLR 26.1 4.4 25% 26 75.92 1011.8
01 16:53 N 17 16.09 Fair CLR 27.8 3.3 28.3 20 21% 27 75.92 1012.0
01 15:53 NE 20 16.09 Fair CLR 27.8 4.4 22% 27 75.97 1012.7
01 14:53 NE 17 16.09 Fair CLR 27.2 5 24% 26 76.05 1013.5
01 13:53 N 13 16.09 Fair CLR 26.7 5 25% 26 76.12 1014.5
01 12:53 Calm 16.09 Fair CLR 24.4 5.6 30% 25 76.17 1015.3
01 11:53 N 11 16.09 Fair CLR 22.2 5 33% 76.23 1015.9
01 10:53 E 7 16.09 Fair CLR 20 5.6 20 2.8 39% 76.25 1016.5
01 09:53 Calm 16.09 Fair CLR 17.2 6.1 48% 76.3 1017.0
01 08:53 Calm 16.09 Fair CLR 14.4 6.1 58% 76.33 1017.4
01 07:53 S 7 16.09 Fair CLR 11.7 6.7 72% 76.33 1017.2
01 06:53 Calm 16.09 Fair CLR 7.2 6.1 93% 76.3 1016.9
01 05:53 Calm 16.09 Fair CLR 3.3 3.3 100% 76.25 1016.4
01 04:53 Calm 16.09 Fair CLR 5 3.9 11.1 4.4 93% 76.25 1016.5
01 03:53 SE 9 16.09 Fair CLR 4.4 3.9 97% 2 76.25 1016.4
01 02:53 Calm 16.09 Fair CLR 6.1 5 93% 76.25 1016.5
01 01:53 Calm 16.09 Fair CLR 7.8 5.6 86% 76.25 1016.5
01 00:53 E 9 16.09 Fair CLR 7.8 5.6 86% 6 76.25 1016.5
30 23:53 SE 11 16.09 Fair CLR 10 5 71% 9 76.25 1016.3
30 22:53 SE 9 16.09 Fair CLR 11.1 6.1 25.6 10.6 72% 76.25 1016.4
30 21:53 S 11 16.09 Fair CLR 11.7 6.7 72% 76.25 1016.5
30 20:53 E 6 16.09 Fair CLR 15.6 3.9 46% 76.2 1015.9
30 19:53 NE 7 16.09 Fair CLR 18.9 1.1 30% 76.2 1015.6
30 18:53 NE 7 16.09 Fair CLR 23.3 0.6 22% 76.2 1015.8
30 17:53 Vrbl 6 16.09 Fair CLR 25 0.6 20% 25 76.23 1016.0
30 16:53 SE 7 16.09 Fair CLR 25 1.1 25.6 17.8 21% 25 76.25 1016.2
30 15:53 Vrbl 7 16.09 Fair CLR 25 -1.1 18% 25 76.3 1016.9
30 14:53 Vrbl 9 16.09 Fair CLR 24.4 1.7 23% 25 76.35 1017.8
30 13:53 N 11 16.09 Fair CLR 23.3 5.6 32% 76.4 1018.5
30 12:53 Vrbl 7 16.09 Fair CLR 22.2 7.2 38% 76.48 1019.3
30 11:53 N 9 16.09 Fair CLR 20 5 38% 76.53 1020.0
30 10:53 N 7 16.09 Fair CLR 17.8 6.1 17.8 2.2 46% 76.58 1020.8
30 09:53 Vrbl 6 16.09 Fair CLR 15.6 5 50% 76.61 1021.2
30 08:53 Calm 16.09 Fair CLR 12.2 5.6 64% 76.66 1021.9
30 07:53 W 6 16.09 Fair CLR 9.4 5 74% 76.66 1021.9
30 06:53 SE 7 16.09 Fair CLR 6.1 4.4 89% 5 76.63 1021.6
30 05:53 S 6 16.09 Fair CLR 3.3 2.2 93% 76.61 1021.0
30 04:53 SE 6 16.09 Fair CLR 3.3 3.3 9.4 2.8 100% 76.58 1021.0
30 03:53 E 6 16.09 Fair CLR 4.4 3.3 93% 76.58 1020.9
30 02:53 Calm 16.09 Fair CLR 5 3.9 93% 76.58 1020.8
30 01:53 Calm 16.09 Fair CLR 6.1 3.9 86% 76.58 1020.9
30 00:53 SE 6 16.09 Fair CLR 6.7 4.4 85% 76.58 1020.9
29 23:53 S 13 16.09 Fair CLR 8.9 5 77% 7 76.58 1020.7
29 22:53 S 9 16.09 Fair CLR 8.9 5.6 22.2 8.9 80% 8 76.56 1020.5
29 21:53 SE 7 16.09 Fair CLR 12.8 4.4 57% 76.56 1020.7
29 20:53 N 6 16.09 Fair CLR 13.3 4.4 55% 76.53 1020.3
29 19:53 NE 7 16.09 NULL NULL 18.3 3.3 37% 76.5 1019.8
29 18:53 NE 13 16.09 Fair CLR 21.1 2.2 29% 76.5 1019.8
29 17:53 NE 13 16.09 Fair CLR 22.2 3.3 29% 76.53 1020.1
29 16:53 NE 17 G 33 16.09 Fair CLR 21.7 2.8 22.2 15 29% 76.53 1020.1
29 15:53 NE 11 16.09 Fair CLR 21.7 2.2 28% 76.58 1020.6
29 14:53 Vrbl 9 16.09 Fair CLR 21.1 3.9 32% 76.63 1021.3
29 13:53 NE 11 16.09 Fair CLR 20 4.4 36% 76.66 1021.7
29 12:53 Vrbl 11 16.09 Fair CLR 18.9 4.4 39% 76.68 1022.2
Date Time (pdt) Wind (kph) Vis. (km) Weather Sky Cond. Air Dwpt Max. Min. Relative Humidity Wind Chill (°C) Heat Index (°C) altimeter (cm) sea level (mb) 1 hr 3 hr 6 hr
6 hour
Temperature (ºC) Pressure Precipitation (cm)